createdAt,value
2023-01-10T00:01:40.764Z,59.56
2023-01-10T00:04:08.429Z,59.66
2023-01-10T00:06:35.851Z,59.71
2023-01-10T00:09:03.978Z,59.69
2023-01-10T00:11:49.901Z,60.24
2023-01-10T00:14:17.317Z,60.86
2023-01-10T00:16:47.236Z,60.27
2023-01-10T00:19:14.648Z,59.80
2023-01-10T00:21:42.148Z,59.45
2023-01-10T00:24:20.648Z,60.16
2023-01-10T00:26:53.592Z,60.47
2023-01-10T00:29:24.343Z,60.78
2023-01-10T00:31:51.981Z,59.78
2023-01-10T00:34:19.636Z,60.74
2023-01-10T00:36:48.253Z,59.41
2023-01-10T00:39:19.100Z,59.24
2023-01-10T00:42:05.078Z,59.86
2023-01-10T00:44:33.849Z,59.15
2023-01-10T00:47:01.722Z,58.81
2023-01-10T00:49:29.235Z,59.60
2023-01-10T00:51:58.524Z,59.57
2023-01-10T00:54:26.466Z,60.15
2023-01-10T00:56:54.247Z,59.79
2023-01-10T00:59:22.053Z,60.58
2023-01-10T01:01:50.959Z,60.55
2023-01-10T01:04:18.566Z,60.15
2023-01-10T01:06:48.013Z,59.85
2023-01-10T01:09:15.660Z,60.04
2023-01-10T01:11:43.819Z,59.65
2023-01-10T01:14:11.483Z,59.54
2023-01-10T01:16:38.909Z,59.02
2023-01-10T01:19:06.632Z,59.39
2023-01-10T01:21:34.296Z,58.94
2023-01-10T01:24:01.651Z,59.28
2023-01-10T01:26:29.145Z,59.89
2023-01-10T01:28:56.503Z,60.17
2023-01-10T01:31:23.878Z,60.05
2023-01-10T01:33:52.184Z,59.00
2023-01-10T01:36:21.178Z,59.97
2023-01-10T01:38:48.550Z,59.84
2023-01-10T01:41:34.505Z,59.66
2023-01-10T01:44:17.889Z,60.03
2023-01-10T01:46:50.839Z,60.04
2023-01-10T01:49:24.479Z,60.69
2023-01-10T01:51:59.946Z,61.06
2023-01-10T01:54:29.868Z,60.72
2023-01-10T01:57:13.532Z,60.96
2023-01-10T01:59:46.999Z,60.54
2023-01-10T02:02:26.490Z,61.28
2023-01-10T02:05:08.968Z,61.63
2023-01-10T02:07:39.267Z,61.76
2023-01-10T02:10:20.407Z,61.63
2023-01-10T02:12:52.569Z,61.16
2023-01-10T02:15:20.166Z,61.35
2023-01-10T02:17:49.685Z,61.29
2023-01-10T02:20:20.771Z,61.50
2023-01-10T02:23:09.370Z,61.94
2023-01-10T02:25:55.045Z,61.96
2023-01-10T02:28:48.373Z,60.38
2023-01-10T02:31:36.785Z,61.24
2023-01-10T02:34:31.887Z,60.11
2023-01-10T02:36:59.215Z,60.05
2023-01-10T02:39:48.167Z,61.03
2023-01-10T02:42:42.232Z,60.91
2023-01-10T02:45:45.169Z,61.76
2023-01-10T02:48:12.605Z,60.72
2023-01-10T02:50:49.530Z,59.78
2023-01-10T02:53:29.459Z,59.91
2023-01-10T02:56:20.041Z,60.45
2023-01-10T02:59:07.103Z,60.74
2023-01-10T03:01:49.651Z,59.91
2023-01-10T03:05:02.376Z,59.07
2023-01-10T03:07:43.012Z,59.72
2023-01-10T03:10:22.471Z,60.13
2023-01-10T03:12:57.436Z,59.50
2023-01-10T03:15:29.774Z,59.80
2023-01-10T03:18:02.478Z,59.35
2023-01-10T03:20:35.223Z,60.04
2023-01-10T03:23:05.523Z,59.76
2023-01-10T03:25:38.612Z,59.01
2023-01-10T03:28:32.489Z,58.19
2023-01-10T03:31:10.449Z,57.79
2023-01-10T03:33:38.887Z,58.52
2023-01-10T03:36:31.556Z,59.11
2023-01-10T03:39:27.165Z,58.11
2023-01-10T03:42:57.432Z,58.70
2023-01-10T03:45:31.318Z,58.08
2023-01-10T03:48:01.740Z,58.23
2023-01-10T03:50:30.858Z,57.78
2023-01-10T03:52:59.006Z,58.24
2023-01-10T03:55:29.285Z,57.89
2023-01-10T03:57:56.737Z,58.60
2023-01-10T04:00:24.637Z,58.80
2023-01-10T04:02:52.140Z,58.74
2023-01-10T04:05:19.504Z,58.89
2023-01-10T04:07:47.999Z,58.16
2023-01-10T04:10:15.791Z,58.09
2023-01-10T04:12:43.856Z,58.85
2023-01-10T04:15:11.544Z,58.57
2023-01-10T04:17:39.341Z,58.54
2023-01-10T04:20:06.983Z,58.22
2023-01-10T04:22:34.362Z,58.23
2023-01-10T04:25:02.270Z,58.33
2023-01-10T04:27:30.663Z,57.77
2023-01-10T04:29:58.126Z,58.13
2023-01-10T04:32:26.858Z,57.61
2023-01-10T04:34:54.666Z,57.63
2023-01-10T04:37:22.236Z,57.33
2023-01-10T04:39:50.618Z,57.24
2023-01-10T04:42:19.355Z,57.80
2023-01-10T04:44:47.001Z,57.30
2023-01-10T04:47:15.144Z,57.34
2023-01-10T04:49:42.674Z,57.38
2023-01-10T04:52:11.550Z,57.27
2023-01-10T04:54:38.920Z,57.02
2023-01-10T04:57:07.473Z,57.44
2023-01-10T04:59:34.952Z,57.93
2023-01-10T05:02:02.817Z,59.02
2023-01-10T05:04:30.735Z,58.56
2023-01-10T05:06:58.080Z,58.68
2023-01-10T05:09:27.333Z,58.67
2023-01-10T05:11:55.397Z,57.51
2023-01-10T05:14:22.976Z,57.61
2023-01-10T05:16:50.409Z,58.07
2023-01-10T05:19:18.110Z,56.90
2023-01-10T05:21:45.461Z,57.27
2023-01-10T05:24:13.075Z,58.10
2023-01-10T05:26:40.652Z,57.40
2023-01-10T05:29:12.038Z,56.97
2023-01-10T05:31:39.822Z,57.17
2023-01-10T05:34:07.283Z,57.02
2023-01-10T05:36:34.714Z,57.07
2023-01-10T05:39:02.353Z,57.08
2023-01-10T05:41:30.002Z,56.30
2023-01-10T05:43:57.483Z,57.06
2023-01-10T05:46:24.955Z,56.96
2023-01-10T05:48:55.536Z,56.74
2023-01-10T05:51:23.320Z,57.37
2023-01-10T05:53:51.121Z,57.34
2023-01-10T05:56:18.745Z,55.61
2023-01-10T05:58:47.411Z,56.54
2023-01-10T06:01:17.020Z,56.20
2023-01-10T06:03:44.908Z,55.98
2023-01-10T06:06:12.697Z,54.94
2023-01-10T06:08:41.083Z,55.98
2023-01-10T06:11:10.800Z,55.15
2023-01-10T06:13:38.569Z,55.35
2023-01-10T06:16:06.631Z,54.50
2023-01-10T06:18:34.193Z,54.24
2023-01-10T06:21:01.651Z,55.08
2023-01-10T06:23:30.557Z,55.06
2023-01-10T06:25:58.045Z,54.39
2023-01-10T06:28:25.636Z,55.44
2023-01-10T06:30:53.292Z,54.94
2023-01-10T06:33:20.868Z,54.90
2023-01-10T06:35:48.621Z,54.53
2023-01-10T06:38:16.639Z,52.99
2023-01-10T06:40:44.218Z,53.00
2023-01-10T06:43:11.630Z,53.14
2023-01-10T06:45:39.518Z,52.72
2023-01-10T06:48:07.545Z,52.79
2023-01-10T06:50:35.271Z,53.21
2023-01-10T06:53:04.697Z,53.34
2023-01-10T06:55:32.978Z,53.05
2023-01-10T06:58:04.984Z,52.46
2023-01-10T07:00:32.922Z,52.29
2023-01-10T07:03:01.890Z,51.48
2023-01-10T07:05:30.678Z,52.81
2023-01-10T07:07:59.104Z,52.24
2023-01-10T07:10:29.477Z,52.16
2023-01-10T07:12:58.033Z,50.35
2023-01-10T07:15:30.682Z,51.47
2023-01-10T07:18:01.403Z,51.51
2023-01-10T07:20:29.735Z,51.15
2023-01-10T07:22:59.337Z,49.89
2023-01-10T07:25:30.346Z,50.17
2023-01-10T07:27:58.519Z,49.12
2023-01-10T07:30:26.378Z,48.96
2023-01-10T07:32:55.553Z,48.69
2023-01-10T07:35:24.077Z,49.13
2023-01-10T07:37:53.976Z,49.42
2023-01-10T07:40:21.418Z,50.05
2023-01-10T07:42:48.900Z,50.05
2023-01-10T07:45:16.561Z,49.19
2023-01-10T07:47:43.956Z,48.65
2023-01-10T07:50:11.725Z,49.32
2023-01-10T07:52:39.085Z,49.15
2023-01-10T07:55:07.047Z,48.12
2023-01-10T07:57:34.464Z,48.93
2023-01-10T08:00:02.485Z,49.41
2023-01-10T08:02:32.796Z,48.43
2023-01-10T08:05:00.373Z,49.05
2023-01-10T08:07:30.202Z,49.59
2023-01-10T08:09:57.871Z,48.09
2023-01-10T08:12:25.554Z,47.40
2023-01-10T08:14:53.197Z,48.20
2023-01-10T08:17:20.723Z,47.80
2023-01-10T08:19:48.238Z,46.85
2023-01-10T08:22:15.943Z,47.78
2023-01-10T08:24:43.339Z,46.31
2023-01-10T08:27:11.212Z,46.82
2023-01-10T08:29:38.625Z,45.95
2023-01-10T08:32:06.297Z,46.98
2023-01-10T08:34:33.694Z,44.93
2023-01-10T08:37:01.714Z,46.54
2023-01-10T08:39:30.884Z,48.40
2023-01-10T08:41:58.336Z,47.22
2023-01-10T08:44:27.023Z,47.93
2023-01-10T08:46:54.416Z,47.37
2023-01-10T08:49:21.856Z,46.53
2023-01-10T08:51:49.467Z,47.82
2023-01-10T08:54:17.039Z,48.34
2023-01-10T08:56:44.461Z,47.27
2023-01-10T08:59:12.329Z,48.17
2023-01-10T09:01:40.094Z,48.57
2023-01-10T09:04:07.582Z,48.71
2023-01-10T09:06:34.988Z,47.81
2023-01-10T09:09:02.451Z,48.14
2023-01-10T09:11:30.133Z,48.38
2023-01-10T09:13:57.547Z,48.79
2023-01-10T09:16:25.160Z,48.52
2023-01-10T09:18:52.754Z,48.44
2023-01-10T09:21:20.909Z,48.86
2023-01-10T09:23:48.562Z,48.63
2023-01-10T09:26:16.158Z,49.27
2023-01-10T09:28:44.112Z,49.73
2023-01-10T09:31:12.420Z,50.54
2023-01-10T09:33:47.151Z,50.25
2023-01-10T09:36:16.120Z,50.61
2023-01-10T09:38:44.949Z,50.53
2023-01-10T09:41:27.596Z,51.35
2023-01-10T09:44:28.807Z,50.83
2023-01-10T09:47:21.700Z,49.91
2023-01-10T09:50:18.021Z,50.86
2023-01-10T09:52:51.213Z,51.48
2023-01-10T09:55:21.533Z,51.07
2023-01-10T09:57:49.953Z,51.46
2023-01-10T10:00:23.615Z,51.61
2023-01-10T10:02:54.559Z,50.96
2023-01-10T10:05:25.358Z,51.13
2023-01-10T10:07:56.696Z,51.84
2023-01-10T10:10:48.278Z,51.49
2023-01-10T10:13:34.231Z,51.79
2023-01-10T10:16:28.320Z,50.77
2023-01-10T10:19:26.223Z,51.89
2023-01-10T10:21:53.640Z,51.38
2023-01-10T10:24:28.057Z,51.95
2023-01-10T10:27:20.012Z,52.54
2023-01-10T10:30:08.504Z,52.38
2023-01-10T10:32:54.138Z,51.85
2023-01-10T10:35:28.173Z,52.27
2023-01-10T10:38:02.409Z,51.81
2023-01-10T10:40:34.562Z,52.16
2023-01-10T10:43:14.267Z,51.60
2023-01-10T10:45:47.813Z,50.66
2023-01-10T10:48:24.150Z,51.09
2023-01-10T10:51:10.412Z,51.21
2023-01-10T10:53:38.035Z,51.72
2023-01-10T10:56:11.725Z,51.65
2023-01-10T10:58:43.217Z,51.41
2023-01-10T11:01:19.326Z,52.65
2023-01-10T11:04:01.214Z,51.77
2023-01-10T11:06:33.281Z,51.20
2023-01-10T11:09:04.920Z,51.00
2023-01-10T11:11:38.078Z,51.41
2023-01-10T11:14:08.233Z,52.50
2023-01-10T11:16:41.344Z,52.14
2023-01-10T11:19:27.199Z,51.72
2023-01-10T11:22:01.301Z,51.96
2023-01-10T11:24:36.437Z,51.85
2023-01-10T11:27:14.848Z,51.11
2023-01-10T11:29:51.901Z,51.43
2023-01-10T11:32:23.449Z,51.73
2023-01-10T11:34:59.280Z,51.71
2023-01-10T11:37:31.921Z,50.93
2023-01-10T11:40:15.202Z,50.48
2023-01-10T11:42:42.860Z,50.66
2023-01-10T11:45:19.417Z,50.91
2023-01-10T11:47:58.825Z,50.90
2023-01-10T11:50:29.527Z,50.89
2023-01-10T11:52:58.385Z,51.12
2023-01-10T11:55:38.232Z,51.41
2023-01-10T11:58:08.445Z,50.61
2023-01-10T12:00:43.234Z,51.02
2023-01-10T12:03:16.931Z,51.00
2023-01-10T12:05:56.676Z,50.73
2023-01-10T12:08:37.646Z,51.13
2023-01-10T12:11:07.901Z,51.34
2023-01-10T12:13:53.003Z,51.64
2023-01-10T12:16:22.779Z,51.24
2023-01-10T12:18:53.117Z,51.84
2023-01-10T12:21:45.931Z,51.91
2023-01-10T12:24:23.155Z,51.87
2023-01-10T12:26:54.053Z,51.96
2023-01-10T12:29:29.102Z,51.76
2023-01-10T12:31:59.625Z,51.93
2023-01-10T12:34:39.025Z,51.80
2023-01-10T12:37:15.058Z,51.99
2023-01-10T12:40:10.627Z,51.69
2023-01-10T12:43:18.945Z,51.71
2023-01-10T12:45:54.492Z,51.05
2023-01-10T12:48:39.511Z,51.05
2023-01-10T12:51:13.049Z,51.26
2023-01-10T12:53:45.877Z,51.38
2023-01-10T12:56:16.698Z,51.44
2023-01-10T12:58:48.445Z,51.53
2023-01-10T13:01:19.025Z,51.66
2023-01-10T13:03:54.815Z,51.61
2023-01-10T13:06:38.051Z,51.60
2023-01-10T13:09:22.432Z,51.64
2023-01-10T13:12:12.043Z,51.11
2023-01-10T13:14:50.814Z,51.20
2023-01-10T13:17:33.771Z,50.08
2023-01-10T13:20:16.583Z,50.68
2023-01-10T13:22:51.571Z,50.34
2023-01-10T13:25:36.699Z,49.85
2023-01-10T13:28:26.254Z,49.91
2023-01-10T13:31:01.355Z,51.16
2023-01-10T13:33:32.476Z,51.52
2023-01-10T13:36:11.784Z,50.58
2023-01-10T13:38:53.656Z,50.93
2023-01-10T13:41:40.938Z,51.64
2023-01-10T13:44:16.094Z,51.42
2023-01-10T13:46:52.639Z,51.96
2023-01-10T13:49:27.412Z,51.72
2023-01-10T13:52:30.591Z,51.62
2023-01-10T13:55:21.112Z,52.02
2023-01-10T13:58:00.350Z,51.87
2023-01-10T14:01:03.004Z,52.39
2023-01-10T14:03:41.849Z,52.45
2023-01-10T14:06:29.595Z,51.11
2023-01-10T14:09:00.665Z,51.01
2023-01-10T14:11:36.045Z,52.21
2023-01-10T14:14:03.682Z,51.50
2023-01-10T14:16:38.338Z,52.31
2023-01-10T14:19:22.465Z,51.28
2023-01-10T14:21:55.768Z,51.36
2023-01-10T14:24:44.170Z,52.47
2023-01-10T14:27:18.068Z,52.81
2023-01-10T14:29:56.665Z,52.46
2023-01-10T14:32:46.628Z,52.19
2023-01-10T14:35:18.681Z,52.79
2023-01-10T14:37:57.038Z,52.04
2023-01-10T14:40:39.017Z,50.51
2023-01-10T14:43:12.360Z,51.47
2023-01-10T14:46:04.925Z,50.69
2023-01-10T14:48:41.561Z,51.20
2023-01-10T14:51:29.026Z,51.69
2023-01-10T14:54:02.464Z,50.97
2023-01-10T14:57:06.957Z,51.76
2023-01-10T14:59:36.468Z,50.82
2023-01-10T15:02:23.408Z,51.10
2023-01-10T15:05:15.970Z,51.79
2023-01-10T15:07:43.589Z,51.96
2023-01-10T15:10:30.932Z,52.18
2023-01-10T15:13:02.138Z,52.16
2023-01-10T15:15:35.606Z,52.27
2023-01-10T15:18:25.947Z,51.79
2023-01-10T15:20:54.162Z,51.19
2023-01-10T15:23:21.694Z,52.09
2023-01-10T15:26:02.955Z,51.64
2023-01-10T15:28:31.485Z,51.85
2023-01-10T15:30:59.792Z,51.73
2023-01-10T15:33:34.481Z,51.28
2023-01-10T15:36:14.870Z,51.69
2023-01-10T15:38:47.601Z,50.76
2023-01-10T15:41:21.973Z,50.70
2023-01-10T15:43:59.655Z,52.09
2023-01-10T15:46:27.471Z,51.65
2023-01-10T15:49:02.971Z,51.67
2023-01-10T15:51:38.171Z,52.10
2023-01-10T15:54:21.881Z,51.60
2023-01-10T15:57:08.062Z,52.10
2023-01-10T15:59:47.806Z,51.13
2023-01-10T16:02:33.829Z,50.38
2023-01-10T16:05:11.660Z,51.60
2023-01-10T16:07:44.794Z,51.00
2023-01-10T16:10:15.425Z,51.11
2023-01-10T16:13:03.268Z,50.48
2023-01-10T16:15:35.678Z,50.37
2023-01-10T16:18:03.166Z,50.76
2023-01-10T16:20:41.587Z,52.50
2023-01-10T16:23:21.049Z,52.08
2023-01-10T16:25:57.351Z,52.48
2023-01-10T16:28:27.691Z,52.52
2023-01-10T16:30:55.695Z,52.16
2023-01-10T16:33:28.166Z,52.22
2023-01-10T16:35:58.838Z,52.27
2023-01-10T16:38:28.767Z,52.15
2023-01-10T16:41:21.797Z,52.58
2023-01-10T16:43:50.209Z,51.52
2023-01-10T16:46:18.110Z,51.61
2023-01-10T16:48:47.839Z,51.50
2023-01-10T16:51:21.815Z,52.15
2023-01-10T16:53:49.771Z,51.56
2023-01-10T16:56:28.595Z,52.26
2023-01-10T16:58:57.046Z,52.13
2023-01-10T17:01:32.628Z,52.09
2023-01-10T17:04:01.389Z,53.52
2023-01-10T17:06:29.046Z,53.13
2023-01-10T17:08:56.654Z,52.89
2023-01-10T17:11:31.984Z,52.61
2023-01-10T17:13:59.942Z,51.96
2023-01-10T17:16:27.551Z,52.00
2023-01-10T17:18:55.575Z,52.64
2023-01-10T17:21:23.552Z,52.50
2023-01-10T17:23:52.014Z,53.17
2023-01-10T17:26:20.182Z,52.62
2023-01-10T17:28:49.893Z,52.83
2023-01-10T17:31:20.747Z,52.52
2023-01-10T17:33:51.558Z,52.08
2023-01-10T17:36:21.008Z,53.33
2023-01-10T17:38:48.959Z,52.58
2023-01-10T17:41:16.756Z,52.34
2023-01-10T17:43:44.126Z,52.30
2023-01-10T17:46:11.844Z,52.61
2023-01-10T17:48:39.440Z,53.13
2023-01-10T17:51:07.846Z,52.54
2023-01-10T17:53:35.558Z,52.72
2023-01-10T17:56:05.416Z,52.67
2023-01-10T17:58:33.169Z,52.86
2023-01-10T18:01:01.005Z,51.64
2023-01-10T18:03:29.146Z,52.62
2023-01-10T18:05:58.076Z,51.84
2023-01-10T18:08:26.614Z,51.74
2023-01-10T18:11:00.733Z,51.45
2023-01-10T18:13:31.871Z,51.81
2023-01-10T18:16:01.129Z,52.47
2023-01-10T18:18:29.498Z,51.96
2023-01-10T18:21:01.176Z,52.00
2023-01-10T18:23:30.366Z,52.60
2023-01-10T18:26:06.432Z,52.28
2023-01-10T18:28:42.077Z,52.27
2023-01-10T18:31:18.655Z,51.62
2023-01-10T18:33:47.511Z,51.23
2023-01-10T18:36:21.382Z,51.47
2023-01-10T18:38:49.471Z,52.25
2023-01-10T18:41:18.801Z,53.03
2023-01-10T18:43:47.247Z,53.36
2023-01-10T18:46:22.753Z,52.20
2023-01-10T18:48:53.301Z,52.72
2023-01-10T18:51:23.019Z,53.62
2023-01-10T18:53:53.129Z,52.96
2023-01-10T18:56:21.443Z,53.40
2023-01-10T18:58:49.292Z,53.49
2023-01-10T19:01:21.136Z,53.26
2023-01-10T19:03:50.458Z,54.21
2023-01-10T19:06:20.037Z,53.67
2023-01-10T19:08:47.616Z,53.00
2023-01-10T19:11:17.030Z,52.00
2023-01-10T19:13:46.969Z,52.40
2023-01-10T19:16:16.255Z,52.40
2023-01-10T19:18:45.250Z,53.01
2023-01-10T19:21:15.809Z,52.45
2023-01-10T19:23:44.971Z,51.84
2023-01-10T19:26:13.548Z,51.48
2023-01-10T19:28:43.671Z,52.21
2023-01-10T19:31:23.316Z,52.21
2023-01-10T19:33:51.221Z,52.50
2023-01-10T19:36:20.669Z,52.34
2023-01-10T19:38:48.745Z,52.53
2023-01-10T19:41:18.352Z,52.67
2023-01-10T19:43:45.865Z,53.26
2023-01-10T19:46:14.021Z,53.70
2023-01-10T19:48:43.275Z,54.27
2023-01-10T19:51:14.305Z,54.11
2023-01-10T19:53:47.080Z,53.50
2023-01-10T19:56:19.984Z,52.70
2023-01-10T19:58:48.423Z,53.83
2023-01-10T20:01:21.040Z,53.22
2023-01-10T20:03:49.130Z,52.58
2023-01-10T20:06:21.771Z,53.01
2023-01-10T20:08:50.516Z,52.77
2023-01-10T20:11:20.044Z,53.04
2023-01-10T20:13:49.429Z,52.99
2023-01-10T20:16:22.668Z,53.50
2023-01-10T20:18:51.745Z,54.67
2023-01-10T20:21:20.148Z,53.41
2023-01-10T20:23:49.032Z,53.03
2023-01-10T20:26:29.014Z,52.95
2023-01-10T20:29:02.163Z,52.76
2023-01-10T20:31:30.337Z,53.00
2023-01-10T20:33:58.219Z,52.80
2023-01-10T20:36:26.709Z,53.84
2023-01-10T20:38:54.226Z,53.19
2023-01-10T20:41:27.233Z,52.48
2023-01-10T20:43:56.125Z,53.43
2023-01-10T20:46:27.215Z,53.92
2023-01-10T20:48:56.857Z,53.44
2023-01-10T20:51:28.002Z,53.90
2023-01-10T20:53:55.584Z,54.18
2023-01-10T20:56:26.094Z,54.38
2023-01-10T20:58:55.103Z,53.73
2023-01-10T21:01:33.550Z,53.63
2023-01-10T21:04:07.444Z,53.41
2023-01-10T21:06:36.581Z,53.17
2023-01-10T21:09:04.884Z,53.15
2023-01-10T21:11:36.714Z,53.31
2023-01-10T21:14:13.434Z,53.92
2023-01-10T21:16:40.947Z,54.46
2023-01-10T21:19:11.044Z,53.97
2023-01-10T21:21:40.887Z,53.87
2023-01-10T21:24:09.363Z,53.82
2023-01-10T21:26:36.987Z,54.43
2023-01-10T21:29:04.609Z,53.44
2023-01-10T21:31:32.080Z,53.60
2023-01-10T21:33:59.825Z,53.70
2023-01-10T21:36:27.467Z,54.14
2023-01-10T21:38:56.000Z,53.98
2023-01-10T21:41:42.236Z,54.53
2023-01-10T21:44:10.845Z,54.32
2023-01-10T21:46:38.353Z,54.11
2023-01-10T21:49:06.981Z,54.03
2023-01-10T21:51:34.529Z,54.47
2023-01-10T21:54:03.229Z,54.31
2023-01-10T21:56:30.855Z,54.15
2023-01-10T21:58:58.310Z,54.14
2023-01-10T22:01:25.411Z,54.89
2023-01-10T22:03:52.946Z,54.24
2023-01-10T22:06:20.204Z,54.32
2023-01-10T22:08:47.553Z,54.43
2023-01-10T22:11:14.755Z,54.17
2023-01-10T22:13:41.863Z,54.97
2023-01-10T22:16:09.157Z,55.40
2023-01-10T22:18:36.336Z,54.48
2023-01-10T22:21:06.412Z,54.22
2023-01-10T22:23:34.146Z,54.58
2023-01-10T22:26:08.586Z,54.58
2023-01-10T22:28:38.465Z,55.33
2023-01-10T22:31:05.917Z,54.08
2023-01-10T22:33:37.221Z,54.24
2023-01-10T22:36:19.795Z,54.02
2023-01-10T22:38:48.135Z,53.79
2023-01-10T22:41:20.300Z,53.82
2023-01-10T22:43:47.981Z,53.58
2023-01-10T22:46:18.591Z,53.46
2023-01-10T22:48:46.201Z,54.23
2023-01-10T22:51:14.800Z,53.75
2023-01-10T22:53:42.550Z,53.82
2023-01-10T22:56:11.948Z,54.69
2023-01-10T22:58:39.276Z,54.98
2023-01-10T23:01:07.374Z,55.06
2023-01-10T23:03:35.175Z,55.51
2023-01-10T23:06:02.877Z,54.38
2023-01-10T23:08:29.974Z,55.04
2023-01-10T23:10:57.451Z,54.99
2023-01-10T23:13:25.818Z,55.02
2023-01-10T23:16:08.630Z,55.60
2023-01-10T23:18:35.975Z,54.92
2023-01-10T23:21:05.183Z,55.55
2023-01-10T23:23:32.751Z,55.18
2023-01-10T23:26:05.799Z,55.40
2023-01-10T23:28:35.165Z,55.72
2023-01-10T23:31:03.916Z,55.28
2023-01-10T23:33:32.768Z,55.13
2023-01-10T23:36:00.616Z,55.89
2023-01-10T23:38:28.926Z,56.96
2023-01-10T23:40:56.494Z,55.27
2023-01-10T23:43:24.331Z,55.31
2023-01-10T23:45:52.121Z,55.70
2023-01-10T23:48:20.111Z,55.13
2023-01-10T23:50:49.020Z,55.46
2023-01-10T23:53:16.541Z,56.54
2023-01-10T23:55:43.820Z,56.37
2023-01-10T23:58:11.038Z,55.68
